Terminal Aerodrome Forecast
Issued by NWS

Home | Current Version | Previous Version | Text Only | Print | Product List | Glossary On
Versions: 1 2 3 4 5 6 7 8 9 10 11 12 13 14 15 16
397
FTUS42 KTAE 141737
TAFVLD
TAF
KVLD 141737Z 1418/1518 12008KT P6SM SCT250
     FM150000 10005KT P6SM BKN250
     FM151000 09003KT 5SM BR BKN004
     FM151500 17015G20KT P6SM SCT015 BKN150=

USA.gov is the U.S. government's official web portal to all federal, state and local government web resources and services.